Time;durP1;ratioP1;P1;durP2;ratioP2;P2;SDS_P1;SDS_P2;PMS_P1;PMS_P2;Temp;Humidity;BMP_temperature;BMP_pressure;BME280_temperature;BME280_humidity;BME280_pressure;Samples;Min_cycle;Max_cycle;Signal;HPM_P1;HPM_P2
2021/12/24 00:00:50;;;;;;;;;;;5.40;99.90;;;;;;5054011;28;20007;-75
2021/12/24 00:03:16;;;;;;;;;;;5.50;99.90;;;;;;5054052;28;19921;-74
2021/12/24 00:05:41;;;;;;;;;;;5.50;99.90;;;;;;5087419;28;19927;-74
2021/12/24 00:08:07;;;;;;;;;;;5.50;99.90;;;;;;5053521;28;19932;-74
2021/12/24 00:10:33;;;;;;;;;;;5.50;99.90;;;;;;5087341;28;20365;-75
2021/12/24 00:13:04;;;;;;;;;;;5.50;99.90;;;;;;5036644;28;19920;-75
2021/12/24 00:15:50;;;;;;;;;;;5.50;99.90;;;;;;5053530;28;19921;-75
2021/12/24 00:36:42;;;;;;;;;;;5.50;99.90;;;;;;5053679;28;19920;-75
2021/12/24 00:39:07;;;;;;;;;;;5.50;99.90;;;;;;5068352;28;19927;-75
2021/12/24 00:41:33;;;;;;;;;;;5.50;99.90;;;;;;5072976;28;19920;-75
2021/12/24 00:43:59;;;;;;;;;;;5.50;99.90;;;;;;5073312;28;20340;-75
2021/12/24 00:46:24;;;;;;;;;;;5.50;99.90;;;;;;5056735;28;20032;-75
2021/12/24 00:48:51;;;;;;;;;;;5.50;99.90;;;;;;5091448;28;19924;-75
2021/12/24 00:51:20;;;;;;;;;;;5.50;99.90;;;;;;5072754;28;20281;-75
2021/12/24 00:56:13;;;;;;;;;;;5.50;99.90;;;;;;5090774;28;20427;-75
2021/12/24 00:58:39;;;;;;;;;;;5.60;99.90;;;;;;5073275;28;19927;-75
2021/12/24 01:01:05;;;;;;;;;;;5.60;99.90;;;;;;5072673;28;19920;-75
2021/12/24 01:03:31;;;;;;;;;;;5.60;99.90;;;;;;5072889;28;19931;-75
2021/12/24 01:05:57;;;;;;;;;;;5.60;99.90;;;;;;5090575;28;19920;-75
2021/12/24 01:08:22;;;;;;;;;;;5.60;99.90;;;;;;5072699;28;19924;-75
2021/12/24 01:10:53;;;;;;;;;;;5.60;99.90;;;;;;5072812;28;19997;-75
2021/12/24 01:13:19;;;;;;;;;;;5.50;99.90;;;;;;5072092;28;20393;-75
2021/12/24 01:15:57;;;;;;;;;;;5.60;99.90;;;;;;5072998;28;19985;-75
2021/12/24 01:18:37;;;;;;;;;;;5.60;99.90;;;;;;5072592;28;20283;-75
2021/12/24 01:26:07;;;;;;;;;;;5.60;99.90;;;;;;5071884;28;20045;-75
2021/12/24 01:44:40;;;;;;;101.47;40.78;;;5.70;99.90;;;;;;5050377;28;21100;-75
2021/12/24 01:47:08;;;;;;;101.43;40.67;;;5.70;99.90;;;;;;5049788;28;20414;-75
2021/12/24 01:49:33;;;;;;;90.97;37.97;;;5.70;99.90;;;;;;5049832;28;20415;-75
2021/12/24 01:52:02;;;;;;;90.13;30.67;;;5.80;99.90;;;;;;5051062;28;20044;-76
2021/12/24 01:54:27;;;;;;;84.63;28.90;;;5.80;99.90;;;;;;5051400;28;20052;-75
2021/12/24 01:56:53;;;;;;;66.22;24.90;;;5.80;99.90;;;;;;5051039;28;20410;-76
2021/12/24 01:59:19;;;;;;;94.38;28.17;;;5.80;99.90;;;;;;5034352;28;20086;-76
2021/12/24 02:01:45;;;;;;;59.45;23.05;;;5.80;99.90;;;;;;5051339;28;20123;-76
2021/12/24 02:04:11;;;;;;;61.05;22.17;;;5.80;99.90;;;;;;5051070;28;20466;-75
2021/12/24 02:06:39;;;;;;;71.82;24.90;;;5.80;99.90;;;;;;5051061;28;20060;-76
2021/12/24 02:09:05;;;;;;;69.28;23.05;;;5.90;99.90;;;;;;5034139;28;20056;-76
2021/12/24 02:11:37;;;;;;;76.05;31.88;;;5.90;99.90;;;;;;5049413;28;20432;-75
2021/12/24 02:14:05;;;;;;;59.67;28.15;;;5.90;99.90;;;;;;5032793;28;20785;-75
2021/12/24 02:16:45;;;;;;;70.90;24.73;;;5.90;99.90;;;;;;5068977;28;20052;-75
2021/12/24 02:30:09;;;;;;;52.53;24.92;;;6.20;99.90;;;;;;5066974;28;20396;-75
2021/12/24 02:32:34;;;;;;;50.95;25.73;;;6.20;99.90;;;;;;5067177;28;20396;-75
2021/12/24 02:35:01;;;;;;;55.75;25.88;;;6.20;99.90;;;;;;5049171;28;20996;-75
2021/12/24 02:37:26;;;;;;;48.83;23.60;;;6.30;99.90;;;;;;5068509;28;20889;-75
2021/12/24 02:39:54;;;;;;;50.13;24.40;;;6.30;99.90;;;;;;5068753;28;20459;-75
2021/12/24 02:42:22;;;;;;;43.15;22.33;;;6.30;99.90;;;;;;5052009;28;20485;-75
2021/12/24 02:44:50;;;;;;;56.08;26.00;;;6.40;99.90;;;;;;5087411;28;20405;-75
2021/12/24 02:55:07;;;;;;;44.83;23.08;;;6.50;99.90;;;;;;5066144;28;20463;-75
2021/12/24 02:57:35;;;;;;;41.93;22.03;;;6.50;99.90;;;;;;5048673;28;20913;-75
2021/12/24 03:00:07;;;;;;;43.23;22.20;;;6.50;99.90;;;;;;5048908;28;20438;-75
2021/12/24 03:02:34;;;;;;;39.67;21.77;;;6.50;99.90;;;;;;5066695;28;20774;-76
2021/12/24 03:05:00;;;;;;;34.67;19.50;;;6.50;99.90;;;;;;5062724;28;20480;-75
2021/12/24 03:07:26;;;;;;;38.20;20.25;;;6.50;99.90;;;;;;5068788;28;20416;-76
2021/12/24 03:09:52;;;;;;;31.95;18.35;;;6.60;99.90;;;;;;5051433;28;20406;-75
2021/12/24 03:12:18;;;;;;;32.25;18.08;;;6.60;99.90;;;;;;5064772;28;20435;-75
2021/12/24 03:14:44;;;;;;;48.45;22.67;;;6.60;99.90;;;;;;5049311;28;20458;-75
2021/12/24 03:17:15;;;;;;;31.23;18.30;;;6.60;99.90;;;;;;5049340;28;20955;-75
2021/12/24 03:19:40;;;;;;;44.90;21.52;;;6.60;99.90;;;;;;5048653;28;20404;-75
2021/12/24 03:22:29;;;;;;;35.92;18.95;;;6.60;99.90;;;;;;5049112;28;20404;-75
2021/12/24 03:24:55;;;;;;;33.63;18.02;;;6.60;99.90;;;;;;5048639;28;20411;-75
2021/12/24 03:27:22;;;;;;;51.77;23.40;;;6.60;99.90;;;;;;5066873;28;20395;-75
2021/12/24 03:29:48;;;;;;;38.33;19.53;;;6.60;99.90;;;;;;5048072;28;21019;-76
2021/12/24 03:32:14;;;;;;;33.83;18.30;;;6.70;99.90;;;;;;5066806;28;20435;-75
2021/12/24 03:34:40;;;;;;;39.28;20.05;;;6.70;99.90;;;;;;5048738;28;20411;-75
2021/12/24 03:37:06;;;;;;;47.10;21.33;;;6.70;99.90;;;;;;5048542;28;20396;-75
2021/12/24 03:39:32;;;;;;;45.03;21.23;;;6.80;99.90;;;;;;5048274;28;20412;-76
2021/12/24 03:41:58;;;;;;;34.25;18.77;;;6.80;99.90;;;;;;5066534;28;20427;-76
2021/12/24 03:44:33;;;;;;;36.15;19.25;;;6.80;99.90;;;;;;5048784;28;20905;-76
2021/12/24 03:47:20;;;;;;;51.37;22.63;;;6.80;99.90;;;;;;5065931;28;20411;-76
2021/12/24 03:52:23;;;;;;;44.38;21.45;;;6.90;99.90;;;;;;5049511;28;20481;-75
2021/12/24 03:55:00;;;;;;;50.40;22.73;;;6.90;99.90;;;;;;5051971;28;20509;-76
2021/12/24 03:57:38;;;;;;;51.40;22.83;;;6.90;99.90;;;;;;5052424;28;20408;-76
2021/12/24 04:00:13;;;;;;;51.25;23.00;;;6.90;99.90;;;;;;5051626;28;20450;-75
2021/12/24 04:02:40;;;;;;;55.33;24.83;;;6.90;99.90;;;;;;5051990;28;20442;-75
2021/12/24 04:05:06;;;;;;;66.53;26.73;;;6.90;99.90;;;;;;5068861;28;20874;-76
2021/12/24 04:07:32;;;;;;;58.83;25.13;;;7.00;99.90;;;;;;5071978;28;20416;-75
2021/12/24 04:10:17;;;;;;;70.60;22.73;;;7.00;99.90;;;;;;5072820;28;20130;-75
2021/12/24 04:12:43;;;;;;;60.47;20.17;;;7.00;99.90;;;;;;5091762;28;20433;-76
2021/12/24 04:15:09;;;;;;;55.30;18.75;;;7.00;99.90;;;;;;5091021;28;20478;-76
2021/12/24 04:17:38;;;;;;;74.47;21.13;;;7.00;99.90;;;;;;5091397;28;20044;-76
2021/12/24 04:25:33;;;;;;;91.90;23.58;;;7.10;99.90;;;;;;5073071;28;20101;-76
2021/12/24 04:28:00;;;;;;;66.03;21.25;;;7.10;99.90;;;;;;5090887;28;20047;-76
2021/12/24 04:30:32;;;;;;;69.00;20.45;;;7.10;99.90;;;;;;5073260;28;20070;-76
2021/12/24 04:33:03;;;;;;;74.38;22.50;;;7.10;99.90;;;;;;5072458;28;20044;-76
2021/12/24 04:51:39;;;;;;;67.85;21.15;;;7.40;99.90;;;;;;5091789;28;20048;-75
2021/12/24 05:04:50;;;;;;;56.25;19.80;;;7.50;99.90;;;;;;5076659;28;20044;-75
2021/12/24 05:09:57;;;;;;;65.18;22.25;;;7.60;99.90;;;;;;5053109;28;20159;-75
2021/12/24 05:12:23;;;;;;;63.75;22.05;;;7.60;99.90;;;;;;5052540;28;20060;-75
2021/12/24 05:14:48;;;;;;;53.95;19.60;;;7.60;99.90;;;;;;5053141;28;20418;-75
2021/12/24 05:17:34;;;;;;;49.85;18.85;;;7.60;99.90;;;;;;5052885;28;20040;-75
2021/12/24 05:22:44;;;;;;;60.67;20.83;;;7.60;99.90;;;;;;5070524;28;20045;-75
2021/12/24 05:25:10;;;;;;;65.25;24.17;;;7.70;99.90;;;;;;5070699;28;20127;-75
2021/12/24 05:27:36;;;;;;;62.35;22.15;;;7.70;99.90;;;;;;5070440;28;20118;-75
2021/12/24 05:30:04;;;;;;;68.35;25.00;;;7.70;99.90;;;;;;5070442;28;20568;-75
2021/12/24 05:32:29;;;;;;;74.57;26.98;;;7.80;99.90;;;;;;5070519;28;20564;-75
2021/12/24 05:34:55;;;;;;;79.07;27.80;;;7.80;99.90;;;;;;5069715;28;20128;-75
2021/12/24 05:37:21;;;;;;;94.47;29.23;;;7.90;99.90;;;;;;5069040;28;20053;-75
2021/12/24 05:39:46;;;;;;;90.60;33.38;;;7.90;99.90;;;;;;5069352;28;20453;-75
2021/12/24 05:42:12;;;;;;;;;;;8.00;99.90;;;;;;5052199;28;20137;-75
2021/12/24 05:44:37;;;;;;;;;;;8.00;99.90;;;;;;5052328;28;19920;-75
2021/12/24 05:47:03;;;;;;;;;;;8.00;99.90;;;;;;5051960;28;19920;-75
2021/12/24 05:49:29;;;;;;;;;;;8.00;99.90;;;;;;5069620;28;19920;-75
2021/12/24 05:51:54;;;;;;;;;;;8.10;99.90;;;;;;5051780;28;19928;-75
2021/12/24 05:54:20;;;;;;;;;;;8.00;99.90;;;;;;5069434;28;19971;-75
2021/12/24 05:56:46;;;;;;;;;;;8.00;99.90;;;;;;5034980;28;19968;-75
2021/12/24 05:59:12;;;;;;;;;;;8.00;99.90;;;;;;5051620;28;19925;-75
2021/12/24 06:01:37;;;;;;;;;;;8.10;99.90;;;;;;5051710;28;20361;-75
2021/12/24 06:04:03;;;;;;;;;;;8.10;99.90;;;;;;5077257;28;19973;-75
2021/12/24 06:06:29;;;;;;;108.22;32.70;;;8.10;99.90;;;;;;5071062;28;19998;-75
2021/12/24 06:08:54;;;;;;;94.18;31.80;;;8.10;99.90;;;;;;5053957;28;20074;-75
2021/12/24 06:11:20;;;;;;;99.45;37.53;;;8.10;99.90;;;;;;5087891;28;20896;-75
2021/12/24 06:13:51;;;;;;;108.30;43.13;;;8.10;99.90;;;;;;5087714;28;20489;-75
2021/12/24 06:16:17;;;;;;;126.32;45.33;;;8.10;99.90;;;;;;5087366;28;20417;-75
2021/12/24 06:18:43;;;;;;;;;;;8.10;99.90;;;;;;5071663;28;20118;-75
2021/12/24 06:21:08;;;;;;;52.88;18.80;;;8.10;99.90;;;;;;5088857;28;19967;-76
2021/12/24 06:23:37;;;;;;;70.32;20.15;;;8.00;99.90;;;;;;5088899;28;20046;-76
2021/12/24 06:26:03;;;;;;;;;;;7.90;99.90;;;;;;5063913;28;20045;-75
2021/12/24 06:28:29;;;;;;;50.72;16.42;;;7.80;99.90;;;;;;5044650;28;19966;-75
2021/12/24 06:30:55;;;;;;;52.08;17.38;;;7.60;99.90;;;;;;5059441;28;20410;-75
2021/12/24 06:33:21;;;;;;;62.90;18.35;;;7.60;99.90;;;;;;5072061;28;20041;-76
2021/12/24 06:35:47;;;;;;;59.90;18.98;;;7.50;99.90;;;;;;5069915;28;20085;-76
2021/12/24 06:38:12;;;;;;;54.95;18.67;;;7.40;99.90;;;;;;5054181;28;20097;-75
2021/12/24 06:40:38;;;;;;;43.45;17.95;;;7.30;99.90;;;;;;5052165;28;20423;-73
2021/12/24 06:43:04;;;;;;;59.42;16.98;;;7.30;99.90;;;;;;5064732;28;20490;-73
2021/12/24 06:45:31;;;;;;;50.03;15.18;;;7.20;99.90;;;;;;5050248;28;20076;-72
2021/12/24 06:47:58;;;;;;;48.45;13.88;;;7.20;99.90;;;;;;5084389;28;20135;-73
2021/12/24 06:50:25;;;;;;;;;;;7.10;99.90;;;;;;5086435;28;20048;-73
2021/12/24 06:52:51;;;;;;;;;;;7.10;99.90;;;;;;5071063;28;19930;-73
2021/12/24 06:55:16;;;;;;;;;;;7.10;99.90;;;;;;5070640;28;20030;-74
2021/12/24 06:57:43;;;;;;;;;;;7.00;99.90;;;;;;5070534;28;22028;-73
2021/12/24 07:00:17;;;;;;;;;;;7.00;99.90;;;;;;5070239;28;19931;-74
2021/12/24 07:02:43;;;;;;;;;;;7.00;99.90;;;;;;5071088;28;19968;-74
2021/12/24 07:05:08;;;;;;;;;;;6.90;99.90;;;;;;5061344;28;20655;-74
2021/12/24 07:07:34;;;;;;;;;;;6.90;99.90;;;;;;5061744;28;19920;-74
2021/12/24 07:09:59;;;;;;;;;;;6.90;99.90;;;;;;5070888;28;19920;-73
2021/12/24 07:12:25;;;;;;;;;;;6.90;99.90;;;;;;5082647;28;19921;-74
2021/12/24 07:14:51;;;;;;;;;;;6.80;99.90;;;;;;5066235;28;19923;-74
2021/12/24 07:17:16;;;;;;;;;;;6.80;99.90;;;;;;5065546;28;19925;-74
2021/12/24 07:19:42;;;;;;;;;;;6.80;99.90;;;;;;5070849;28;20298;-74
2021/12/24 07:22:08;;;;;;;37.90;11.52;;;6.70;99.90;;;;;;5046552;28;20026;-74
2021/12/24 07:24:36;;;;;;;32.25;10.27;;;6.70;99.90;;;;;;5050589;28;20072;-74
2021/12/24 07:27:03;;;;;;;33.72;10.43;;;6.60;99.90;;;;;;5069088;28;20040;-74
2021/12/24 07:29:29;;;;;;;26.00;10.43;;;6.60;99.90;;;;;;5072472;28;20455;-74
2021/12/24 07:31:55;;;;;;;27.88;9.70;;;6.60;99.90;;;;;;5057245;28;20040;-74
2021/12/24 07:34:21;;;;;;;30.60;9.57;;;6.50;99.90;;;;;;5073871;28;20096;-74
2021/12/24 07:36:46;;;;;;;42.78;11.68;;;6.50;99.90;;;;;;5055082;28;20036;-74
2021/12/24 07:39:12;;;;;;;27.20;9.95;;;6.40;99.90;;;;;;5073538;28;20080;-74
2021/12/24 07:41:38;;;;;;;27.52;9.98;;;6.50;99.90;;;;;;5057267;28;20051;-75
2021/12/24 07:44:04;;;;;;;23.45;8.88;;;6.40;99.90;;;;;;5056369;28;20040;-74
2021/12/24 07:46:40;;;;;;;27.10;9.27;;;6.40;99.90;;;;;;5060723;28;20046;-74
2021/12/24 07:49:29;;;;;;;40.35;11.48;;;6.40;99.90;;;;;;5071311;28;20048;-74
2021/12/24 07:52:08;;;;;;;39.22;10.68;;;6.40;99.90;;;;;;5057877;28;20070;-75
2021/12/24 07:54:40;;;;;;;76.13;14.68;;;6.40;99.90;;;;;;5044882;28;20043;-75
2021/12/24 07:57:07;;;;;;;48.22;11.52;;;6.40;99.90;;;;;;5091402;28;20604;-74
2021/12/24 07:59:36;;;;;;;56.33;12.70;;;6.30;99.90;;;;;;5073644;28;20044;-75
2021/12/24 08:02:02;;;;;;;53.13;12.88;;;6.30;99.90;;;;;;5071725;28;20626;-75
2021/12/24 08:04:28;;;;;;;59.33;12.85;;;6.30;99.90;;;;;;5061705;28;20048;-75
2021/12/24 08:06:53;;;;;;;69.63;13.63;;;6.30;99.90;;;;;;5090769;28;20414;-75
2021/12/24 08:09:19;;;;;;;52.75;12.60;;;6.30;99.90;;;;;;5069832;28;20041;-75
2021/12/24 08:11:45;;;;;;;199.93;23.70;;;6.30;99.90;;;;;;5069833;28;20052;-75
2021/12/24 08:14:10;;;;;;;103.53;16.60;;;6.30;99.90;;;;;;5069161;28;20068;-74
2021/12/24 08:16:36;;;;;;;62.30;13.20;;;6.30;99.90;;;;;;5072995;28;20054;-74
2021/12/24 08:19:02;;;;;;;55.72;12.68;;;6.30;99.90;;;;;;5090398;28;20422;-74
2021/12/24 08:21:28;;;;;;;61.95;13.23;;;6.30;99.90;;;;;;5072299;28;20043;-74
2021/12/24 08:23:54;;;;;;;70.22;14.35;;;6.30;99.90;;;;;;5069279;28;20048;-74
2021/12/24 08:26:23;;;;;;;45.72;11.88;;;6.30;99.90;;;;;;5072199;28;20059;-74
2021/12/24 08:28:50;;;;;;;44.63;12.10;;;6.30;99.90;;;;;;5072623;28;20048;-74
2021/12/24 08:31:16;;;;;;;67.03;13.70;;;6.20;99.90;;;;;;5072493;28;20048;-74
2021/12/24 08:33:42;;;;;;;52.70;12.43;;;6.20;99.90;;;;;;5072441;28;20028;-74
2021/12/24 08:36:09;;;;;;;67.75;14.73;;;6.20;99.90;;;;;;5072283;28;20511;-74
2021/12/24 08:38:34;;;;;;;82.25;16.75;;;6.20;99.90;;;;;;5090895;28;20083;-74
2021/12/24 08:41:00;;;;;;;76.28;17.35;;;6.20;99.90;;;;;;5038729;28;20075;-74
2021/12/24 08:43:26;;;;;;;60.70;17.23;;;6.20;99.90;;;;;;5053445;28;20049;-74
2021/12/24 08:45:52;;;;;;;59.65;16.45;;;6.20;99.90;;;;;;5053183;28;20045;-72
2021/12/24 08:48:17;;;;;;;50.63;15.32;;;6.20;99.90;;;;;;5071484;28;20049;-72
2021/12/24 08:50:44;;;;;;;52.50;14.65;;;6.20;99.90;;;;;;5078322;28;20074;-73
2021/12/24 08:53:11;;;;;;;48.58;14.95;;;6.20;99.90;;;;;;5089917;28;20140;-73
2021/12/24 08:55:36;;;;;;;56.90;15.82;;;6.20;99.90;;;;;;5091197;28;20131;-74
2021/12/24 08:58:03;;;;;;;46.17;14.30;;;6.20;99.90;;;;;;5073345;28;20178;-74
2021/12/24 09:00:29;;;;;;;65.78;17.27;;;6.10;99.90;;;;;;5056308;28;20036;-74
2021/12/24 09:02:56;;;;;;;57.22;15.75;;;6.10;99.90;;;;;;5091230;28;20044;-75
2021/12/24 09:05:23;;;;;;;46.05;15.88;;;6.10;99.90;;;;;;5054534;28;21475;-74
2021/12/24 09:07:49;;;;;;;43.55;14.43;;;6.10;99.90;;;;;;5036532;28;20048;-74
2021/12/24 09:10:16;;;;;;;62.88;17.90;;;6.10;99.90;;;;;;5087699;28;20052;-74
2021/12/24 09:12:43;;;;;;;59.13;17.08;;;6.10;99.90;;;;;;5091400;28;20043;-75
2021/12/24 09:15:10;;;;;;;59.90;16.30;;;6.10;99.90;;;;;;5062343;28;20391;-74
2021/12/24 09:17:36;;;;;;;61.10;16.92;;;6.10;99.90;;;;;;5070663;28;20032;-74
2021/12/24 09:20:03;;;;;;;50.50;15.27;;;6.00;99.90;;;;;;5074577;28;20052;-74
2021/12/24 09:22:32;;;;;;;51.88;14.35;;;6.00;99.90;;;;;;5067838;28;20079;-74
2021/12/24 09:24:58;;;;;;;34.22;11.50;;;6.00;99.90;;;;;;5090676;28;20090;-74
2021/12/24 09:27:25;;;;;;;37.67;12.68;;;5.90;99.90;;;;;;5090065;28;20036;-74
2021/12/24 09:29:51;;;;;;;31.67;12.32;;;5.90;99.90;;;;;;5072854;28;20048;-74
2021/12/24 09:32:17;;;;;;;33.67;12.98;;;5.80;99.90;;;;;;5059603;28;20110;-74
2021/12/24 09:34:43;;;;;;;39.85;13.02;;;5.80;99.90;;;;;;5082794;28;20044;-74
2021/12/24 09:37:08;;;;;;;34.63;12.93;;;5.80;99.90;;;;;;5057018;28;20458;-74
2021/12/24 09:39:35;;;;;;;31.58;11.75;;;5.80;99.90;;;;;;5089957;28;20407;-74
2021/12/24 09:42:01;;;;;;;33.13;11.57;;;5.80;99.90;;;;;;5090121;28;20118;-75
2021/12/24 09:44:28;;;;;;;29.90;11.85;;;5.70;99.90;;;;;;5089876;28;20490;-75
2021/12/24 09:46:54;;;;;;;25.67;10.70;;;5.70;99.90;;;;;;5071232;28;20083;-74
2021/12/24 09:49:20;;;;;;;22.95;9.98;;;5.70;99.90;;;;;;5084760;28;21860;-75
2021/12/24 09:51:51;;;;;;;20.45;9.38;;;5.70;99.90;;;;;;5072172;28;20089;-74
2021/12/24 09:54:23;;;;;;;21.85;9.52;;;5.60;99.90;;;;;;5072127;28;20138;-74
2021/12/24 09:56:51;;;;;;;20.65;9.70;;;5.60;99.90;;;;;;5073666;28;20048;-75
2021/12/24 09:59:17;;;;;;;26.90;11.32;;;5.60;99.90;;;;;;5018970;28;20074;-75
2021/12/24 10:01:51;;;;;;;31.95;13.73;;;5.60;99.90;;;;;;5052184;28;20036;-75
2021/12/24 10:04:20;;;;;;;19.85;9.82;;;5.60;99.90;;;;;;5062014;28;20109;-75
2021/12/24 10:07:06;;;;;;;26.25;11.00;;;5.50;99.90;;;;;;5071440;28;20485;-75
2021/12/24 10:09:40;;;;;;;22.98;10.32;;;5.50;99.90;;;;;;5070960;28;20044;-75
2021/12/24 10:12:08;;;;;;;23.73;10.70;;;5.50;99.90;;;;;;5089376;28;20458;-75
2021/12/24 10:14:51;;;;;;;24.05;10.23;;;5.50;99.90;;;;;;5072063;28;20149;-75
2021/12/24 10:17:23;;;;;;;24.88;11.68;;;5.50;99.90;;;;;;5051907;28;20123;-75
2021/12/24 10:19:54;;;;;;;28.63;11.63;;;5.50;99.90;;;;;;5069853;28;20056;-75
2021/12/24 10:22:21;;;;;;;29.20;11.48;;;5.50;99.90;;;;;;5069445;28;20060;-75
2021/12/24 10:25:07;;;;;;;22.00;9.27;;;5.50;99.90;;;;;;5069460;28;20055;-75
2021/12/24 10:27:35;;;;;;;15.98;9.05;;;5.50;99.90;;;;;;5071559;28;20063;-75
2021/12/24 10:30:16;;;;;;;19.55;9.95;;;5.50;99.90;;;;;;5054473;28;20060;-75
2021/12/24 10:32:42;;;;;;;16.30;8.57;;;5.40;99.90;;;;;;5054765;28;20047;-75
2021/12/24 10:35:18;;;;;;;17.58;8.20;;;5.40;99.90;;;;;;5071345;28;20056;-75
2021/12/24 10:37:44;;;;;;;15.93;8.63;;;5.40;99.90;;;;;;5054959;28;20040;-75
2021/12/24 10:40:10;;;;;;;17.63;9.13;;;5.40;99.90;;;;;;5054730;28;20035;-75
2021/12/24 10:42:40;;;;;;;19.92;9.55;;;5.40;99.90;;;;;;5071028;28;20139;-74
2021/12/24 10:45:17;;;;;;;15.05;8.15;;;5.40;99.90;;;;;;5071031;28;20440;-74
2021/12/24 10:47:43;;;;;;;17.27;8.60;;;5.40;99.90;;;;;;5071091;28;20040;-74
2021/12/24 10:50:33;;;;;;;17.95;8.88;;;5.40;99.90;;;;;;5089413;28;20083;-74
2021/12/24 10:53:22;;;;;;;19.23;9.10;;;5.40;99.90;;;;;;5071107;28;20047;-74
2021/12/24 10:55:50;;;;;;;15.13;8.32;;;5.50;99.90;;;;;;5071737;28;20082;-74
2021/12/24 10:58:21;;;;;;;19.67;9.95;;;5.40;99.90;;;;;;5070862;28;20044;-74
2021/12/24 11:00:51;;;;;;;17.50;8.65;;;5.40;99.90;;;;;;5088936;28;20048;-75
2021/12/24 11:03:23;;;;;;;16.98;8.70;;;5.40;99.90;;;;;;5072768;28;20113;-75
2021/12/24 11:06:04;;;;;;;21.98;9.93;;;5.40;99.90;;;;;;5067911;28;20051;-75
2021/12/24 11:08:30;;;;;;;19.85;9.63;;;5.40;99.90;;;;;;5075713;28;20089;-75
2021/12/24 11:10:58;;;;;;;16.40;9.10;;;5.40;99.90;;;;;;5074285;28;20044;-75
2021/12/24 11:13:35;;;;;;;15.45;8.10;;;5.40;99.90;;;;;;5064456;28;21014;-77
2021/12/24 11:16:02;;;;;;;14.07;8.55;;;5.40;99.90;;;;;;5071825;28;20040;-75
2021/12/24 11:18:34;;;;;;;13.57;8.20;;;5.40;99.90;;;;;;5057938;28;20051;-77
2021/12/24 11:21:09;;;;;;;16.75;8.45;;;5.40;99.90;;;;;;5075244;28;20048;-75
2021/12/24 11:23:38;;;;;;;18.33;9.32;;;5.40;99.90;;;;;;5092244;28;20051;-74
2021/12/24 11:26:15;;;;;;;18.77;9.10;;;5.40;99.90;;;;;;5083256;28;20036;-75
2021/12/24 11:28:41;;;;;;;16.38;8.57;;;5.40;99.90;;;;;;5093514;28;20092;-77
2021/12/24 11:31:16;;;;;;;16.67;8.10;;;5.40;99.90;;;;;;5074698;28;20059;-75
2021/12/24 11:33:44;;;;;;;15.52;8.57;;;5.40;99.90;;;;;;5091271;28;20081;-77
2021/12/24 11:36:16;;;;;;;16.38;8.57;;;5.40;99.90;;;;;;5049136;28;20685;-75
2021/12/24 11:38:48;;;;;;;13.95;7.53;;;5.40;99.90;;;;;;5076194;28;20548;-74
2021/12/24 11:41:17;;;;;;;12.57;7.40;;;5.50;99.90;;;;;;5091636;28;20115;-75
2021/12/24 11:43:49;;;;;;;13.73;7.93;;;5.40;99.90;;;;;;5091190;28;20048;-75
2021/12/24 11:46:18;;;;;;;13.48;7.50;;;5.40;99.90;;;;;;5073385;28;20048;-75
2021/12/24 11:48:45;;;;;;;13.88;7.90;;;5.40;99.90;;;;;;5069496;28;20486;-74
2021/12/24 11:51:25;;;;;;;12.68;7.47;;;5.40;99.90;;;;;;5057804;28;20568;-75
2021/12/24 11:53:52;;;;;;;17.27;8.55;;;5.40;99.90;;;;;;5093068;28;20418;-75
2021/12/24 11:56:20;;;;;;;14.98;8.30;;;5.40;99.90;;;;;;5092176;28;20040;-74
2021/12/24 11:58:51;;;;;;;15.60;9.00;;;5.50;99.90;;;;;;5073596;28;20040;-75
2021/12/24 12:01:18;;;;;;;14.85;8.50;;;5.50;99.90;;;;;;5073920;28;20059;-75
2021/12/24 12:03:51;;;;;;;14.95;8.05;;;5.50;99.90;;;;;;5068956;28;20044;-75
2021/12/24 12:06:17;;;;;;;17.77;8.45;;;5.50;99.90;;;;;;5053933;28;20498;-74
2021/12/24 12:08:44;;;;;;;15.77;8.95;;;5.50;99.90;;;;;;5081071;28;20070;-73
2021/12/24 12:11:13;;;;;;;13.43;7.60;;;5.50;99.90;;;;;;5074010;28;20514;-73
2021/12/24 12:13:46;;;;;;;13.77;7.05;;;5.50;99.90;;;;;;5073783;28;20097;-73
2021/12/24 12:16:24;;;;;;;13.75;7.20;;;5.50;99.90;;;;;;5056747;28;20048;-74
2021/12/24 12:19:09;;;;;;;14.18;7.80;;;5.60;99.90;;;;;;5074076;28;20051;-74
2021/12/24 12:21:40;;;;;;;;;;;5.60;99.90;;;;;;5056850;28;20132;-74
2021/12/24 12:26:43;;;;;;;15.13;8.93;;;5.70;99.90;;;;;;5072930;28;20383;-74
2021/12/24 12:29:19;;;;;;;19.35;9.48;;;5.70;99.90;;;;;;5056212;28;20329;-74
2021/12/24 12:31:46;;;;;;;15.15;8.73;;;5.70;99.90;;;;;;5056510;28;20555;-74
2021/12/24 12:34:40;;;;;;;13.13;8.15;;;5.70;99.90;;;;;;5073024;28;20059;-74
2021/12/24 12:37:22;;;;;;;14.50;8.73;;;5.70;99.90;;;;;;5073124;28;20052;-75
2021/12/24 12:40:26;;;;;;;13.85;7.95;;;5.70;99.90;;;;;;5090237;28;20124;-74
2021/12/24 12:42:57;;;;;;;13.95;7.30;;;5.70;99.90;;;;;;5058945;28;20053;-74
2021/12/24 12:45:43;;;;;;;15.68;8.23;;;5.70;99.90;;;;;;5072916;28;20065;-75
2021/12/24 12:48:22;;;;;;;12.82;6.95;;;5.70;99.90;;;;;;5072170;28;20514;-74
2021/12/24 12:51:00;;;;;;;12.30;7.00;;;5.70;99.90;;;;;;5072317;28;20040;-75
2021/12/24 12:53:26;;;;;;;14.75;7.53;;;5.70;99.90;;;;;;5061802;28;20576;-75
2021/12/24 12:56:16;;;;;;;9.13;6.15;;;5.70;99.90;;;;;;5063058;28;20052;-74
2021/12/24 12:58:48;;;;;;;11.48;6.90;;;5.70;99.90;;;;;;5072581;28;20056;-75
2021/12/24 13:01:19;;;;;;;11.45;6.93;;;5.80;99.90;;;;;;5072298;28;20119;-75
2021/12/24 13:04:00;;;;;;;11.95;6.85;;;5.80;99.90;;;;;;5066045;28;20080;-75
2021/12/24 13:06:47;;;;;;;8.60;5.78;;;5.80;99.90;;;;;;5052324;28;20132;-74
2021/12/24 13:09:21;;;;;;;10.88;6.70;;;5.80;99.90;;;;;;5073004;28;20082;-75
2021/12/24 13:11:55;;;;;;;14.55;6.47;;;5.80;99.90;;;;;;5071602;28;20585;-74
2021/12/24 13:14:23;;;;;;;10.93;7.22;;;5.80;99.90;;;;;;5072042;28;20112;-75
2021/12/24 13:17:04;;;;;;;11.98;7.10;;;5.80;99.90;;;;;;5072114;28;20051;-74
2021/12/24 13:22:33;;;;;;;11.50;6.78;;;5.90;99.90;;;;;;5072235;28;20051;-75
2021/12/24 13:25:09;;;;;;;10.70;6.85;;;5.90;99.90;;;;;;5088789;28;20078;-75
2021/12/24 13:27:39;;;;;;;11.25;6.82;;;5.90;99.90;;;;;;5089905;28;20060;-75
2021/12/24 13:30:17;;;;;;;10.95;6.93;;;6.00;99.90;;;;;;5071590;28;20055;-75
2021/12/24 13:32:47;;;;;;;9.32;6.35;;;5.90;99.90;;;;;;5089865;28;20079;-72
2021/12/24 13:35:15;;;;;;;11.23;7.30;;;5.90;99.90;;;;;;5071909;28;20106;-73
2021/12/24 13:37:45;;;;;;;11.30;6.45;;;6.00;99.90;;;;;;5071387;28;20040;-73
2021/12/24 13:40:13;;;;;;;14.00;7.05;;;6.00;99.90;;;;;;5071416;28;20052;-74
2021/12/24 13:42:51;;;;;;;12.43;7.28;;;6.00;99.90;;;;;;5071331;28;20059;-74
2021/12/24 13:45:18;;;;;;;10.35;5.97;;;6.00;99.90;;;;;;5071289;28;20048;-74
2021/12/24 13:50:32;;;;;;;11.00;7.07;;;6.00;99.90;;;;;;5089284;28;20052;-75
2021/12/24 13:55:46;;;;;;;13.55;6.88;;;5.90;99.90;;;;;;5057778;28;20060;-75
2021/12/24 13:58:14;;;;;;;11.32;7.32;;;6.00;99.90;;;;;;5070687;28;20058;-75
2021/12/24 14:00:46;;;;;;;12.95;7.57;;;6.00;99.90;;;;;;5071200;28;20043;-75
2021/12/24 14:03:12;;;;;;;12.35;7.82;;;6.00;99.90;;;;;;5069650;28;20044;-75
2021/12/24 14:05:49;;;;;;;13.60;8.07;;;6.00;99.90;;;;;;5062564;28;20048;-75
2021/12/24 14:08:18;;;;;;;14.63;8.00;;;6.00;99.90;;;;;;5054267;28;20418;-75
2021/12/24 14:10:45;;;;;;;13.73;8.15;;;6.00;99.90;;;;;;5053609;28;20055;-75
2021/12/24 14:13:19;;;;;;;11.27;7.63;;;5.90;99.90;;;;;;5041543;28;20052;-75
2021/12/24 14:16:20;;;;;;;16.90;8.77;;;6.00;99.90;;;;;;5065918;28;20489;-75
2021/12/24 14:18:47;;;;;;;14.10;8.80;;;5.90;99.90;;;;;;5050368;28;20106;-75
2021/12/24 14:24:26;;;;;;;19.27;9.30;;;5.90;99.90;;;;;;5070458;28;20060;-75
2021/12/24 14:27:07;;;;;;;16.58;9.70;;;5.90;99.90;;;;;;5070724;28;20050;-75
2021/12/24 14:29:41;;;;;;;15.02;7.80;;;5.90;99.90;;;;;;5071015;28;20541;-75
2021/12/24 14:32:26;;;;;;;16.10;10.07;;;6.00;99.90;;;;;;5064183;28;20055;-75
2021/12/24 14:34:54;;;;;;;15.48;9.32;;;6.00;99.90;;;;;;5034242;28;20049;-75
2021/12/24 14:37:28;;;;;;;13.57;8.65;;;5.90;99.90;;;;;;5068685;28;20041;-75
2021/12/24 14:39:59;;;;;;;17.43;10.03;;;5.90;99.90;;;;;;5057142;28;20131;-75
2021/12/24 14:42:28;;;;;;;18.58;9.98;;;5.90;99.90;;;;;;5070364;28;20048;-76
2021/12/24 14:45:11;;;;;;;17.02;10.15;;;5.90;99.90;;;;;;5070915;28;20052;-76
2021/12/24 14:47:38;;;;;;;11.45;6.70;;;5.90;99.90;;;;;;5071660;28;20043;-76
2021/12/24 14:50:07;;;;;;;12.23;7.22;;;5.90;99.90;;;;;;5070702;28;20092;-76
2021/12/24 14:52:33;;;;;;;10.43;5.82;;;5.90;99.90;;;;;;5054560;28;20052;-76
2021/12/24 14:55:07;;;;;;;6.82;2.45;;;5.90;99.90;;;;;;5071223;28;20040;-76
2021/12/24 14:57:33;;;;;;;6.93;1.10;;;5.90;99.90;;;;;;5071229;28;20122;-76
2021/12/24 15:00:07;;;;;;;4.80;1.00;;;5.80;99.90;;;;;;5070520;28;20144;-76
2021/12/24 15:02:39;;;;;;;3.83;0.90;;;5.80;99.90;;;;;;5070820;28;20752;-76
2021/12/24 15:05:05;;;;;;;10.25;0.90;;;5.70;99.90;;;;;;5054263;28;20045;-76